Time;durP1;ratioP1;P1;durP2;ratioP2;P2;SDS_P1;SDS_P2;PMS_P1;PMS_P2;Temp;Humidity;BMP_temperature;BMP_pressure;BME280_temperature;BME280_humidity;BME280_pressure;Samples;Min_cycle;Max_cycle;Signal;HPM_P1;HPM_P2
2023/08/26 00:00:39;;;;;;;13.05;11.63;;;20.70;99.90;;;;;;5034029;28;20117;-77
2023/08/26 00:03:05;;;;;;;20.35;14.40;;;20.60;99.90;;;;;;5035161;28;20109;-77
2023/08/26 00:05:31;;;;;;;19.98;14.65;;;20.60;99.90;;;;;;5034380;28;20083;-77
2023/08/26 00:07:56;;;;;;;15.55;13.73;;;20.50;99.90;;;;;;5035124;28;20041;-77
2023/08/26 00:10:22;;;;;;;18.05;14.50;;;20.40;99.90;;;;;;5034221;28;20404;-77
2023/08/26 00:12:48;;;;;;;18.50;15.20;;;20.40;99.90;;;;;;5035035;28;20060;-73
2023/08/26 00:15:14;;;;;;;15.82;14.27;;;20.30;99.90;;;;;;5034230;28;20076;-74
2023/08/26 00:17:39;;;;;;;17.63;15.00;;;20.30;99.90;;;;;;5034724;28;20045;-78
2023/08/26 00:20:08;;;;;;;19.02;13.60;;;20.30;99.90;;;;;;5032865;28;20025;-74
2023/08/26 00:22:38;;;;;;;16.05;13.23;;;20.30;99.90;;;;;;5033509;28;20498;-78
2023/08/26 00:25:04;;;;;;;15.85;13.85;;;20.30;99.90;;;;;;5032910;28;20112;-75
2023/08/26 00:27:30;;;;;;;15.35;13.63;;;20.30;99.90;;;;;;5034874;28;20125;-78
2023/08/26 00:29:55;;;;;;;16.20;12.27;;;20.30;99.90;;;;;;5034147;28;20060;-78
2023/08/26 00:32:21;;;;;;;16.73;12.82;;;20.40;99.90;;;;;;5034618;28;20013;-74
2023/08/26 00:34:47;;;;;;;16.20;13.65;;;20.30;99.90;;;;;;5033924;28;20032;-77
2023/08/26 00:37:13;;;;;;;15.20;12.93;;;20.30;99.90;;;;;;5033082;28;20144;-74
2023/08/26 00:39:39;;;;;;;14.90;11.93;;;20.30;99.90;;;;;;5031670;28;20786;-75
2023/08/26 00:42:04;;;;;;;16.40;13.73;;;20.30;99.90;;;;;;5034425;28;20038;-77
2023/08/26 00:44:30;;;;;;;17.95;13.43;;;20.30;99.90;;;;;;5028260;28;20022;-77
2023/08/26 00:46:57;;;;;;;16.83;12.57;;;20.30;99.90;;;;;;5032877;28;20164;-77
2023/08/26 00:49:23;;;;;;;16.30;12.57;;;20.30;99.90;;;;;;5033821;28;20542;-77
2023/08/26 00:51:49;;;;;;;15.68;13.13;;;20.20;99.90;;;;;;5033779;28;20021;-74
2023/08/26 00:54:16;;;;;;;15.50;13.27;;;20.20;99.90;;;;;;5033641;28;20386;-78
2023/08/26 00:56:42;;;;;;;17.40;12.20;;;20.20;99.90;;;;;;5032775;28;20032;-77
2023/08/26 00:59:08;;;;;;;12.18;10.85;;;20.20;99.90;;;;;;5032079;28;20013;-77
2023/08/26 01:01:34;;;;;;;11.55;10.30;;;20.10;99.90;;;;;;5033636;28;20029;-77
2023/08/26 01:03:59;;;;;;;13.13;11.82;;;20.00;99.90;;;;;;5033493;28;20018;-77
2023/08/26 01:06:26;;;;;;;12.35;11.15;;;20.00;99.90;;;;;;5032521;28;20025;-77
2023/08/26 01:08:52;;;;;;;14.57;11.57;;;20.00;99.90;;;;;;5032074;28;20517;-77
2023/08/26 01:11:24;;;;;;;14.60;12.25;;;20.00;99.90;;;;;;5033887;28;20101;-77
2023/08/26 01:14:08;;;;;;;15.10;12.75;;;20.00;99.90;;;;;;5033334;28;20025;-74
2023/08/26 01:16:34;;;;;;;14.45;12.98;;;20.00;99.90;;;;;;5030677;28;20021;-74
2023/08/26 01:19:02;;;;;;;14.30;12.23;;;19.90;99.90;;;;;;5033225;28;20029;-78
2023/08/26 01:21:35;;;;;;;16.33;12.88;;;20.00;99.90;;;;;;5033363;28;20033;-74
2023/08/26 01:24:01;;;;;;;15.20;13.70;;;20.00;99.90;;;;;;5033275;28;20487;-77
2023/08/26 01:26:27;;;;;;;15.52;13.05;;;19.90;99.90;;;;;;5031924;28;20040;-78
2023/08/26 01:28:52;;;;;;;17.85;13.45;;;19.80;99.90;;;;;;5033239;28;20026;-77
2023/08/26 01:31:20;;;;;;;16.25;12.98;;;19.80;99.90;;;;;;5033305;28;20025;-77
2023/08/26 01:34:06;;;;;;;16.20;13.40;;;19.70;99.90;;;;;;5033027;28;20029;-78
2023/08/26 01:36:37;;;;;;;14.45;12.15;;;19.70;99.90;;;;;;5032097;28;20028;-78
2023/08/26 01:39:04;;;;;;;14.17;12.40;;;19.70;99.90;;;;;;5033184;28;20032;-78
2023/08/26 01:41:30;;;;;;;13.60;11.63;;;19.70;99.90;;;;;;5031758;28;20032;-74
2023/08/26 01:43:57;;;;;;;15.40;12.77;;;19.60;99.90;;;;;;5032560;28;20017;-78
2023/08/26 01:46:36;;;;;;;14.25;11.95;;;19.60;99.90;;;;;;5031596;28;20067;-78
2023/08/26 01:49:02;;;;;;;13.60;11.40;;;19.60;99.90;;;;;;5031764;28;20095;-77
2023/08/26 01:51:29;;;;;;;13.10;11.00;;;19.60;99.90;;;;;;5031658;28;20395;-77
2023/08/26 01:53:55;;;;;;;15.68;12.50;;;19.50;99.90;;;;;;5019662;28;20018;-74
2023/08/26 01:56:20;;;;;;;16.67;12.48;;;19.50;99.90;;;;;;5033097;28;20422;-78
2023/08/26 01:58:46;;;;;;;15.52;13.05;;;19.50;99.90;;;;;;5032363;28;20022;-77
2023/08/26 02:01:12;;;;;;;13.68;10.98;;;19.50;99.90;;;;;;5031694;28;20061;-74
2023/08/26 02:03:37;;;;;;;13.18;11.75;;;19.40;99.90;;;;;;5030741;28;20545;-73
2023/08/26 02:06:03;;;;;;;15.52;12.82;;;19.30;99.90;;;;;;5031780;28;20025;-77
2023/08/26 02:08:29;;;;;;;16.55;12.52;;;19.30;99.90;;;;;;5032754;28;20029;-74
2023/08/26 02:10:58;;;;;;;17.95;12.68;;;19.30;99.90;;;;;;5032474;28;20483;-74
2023/08/26 02:13:24;;;;;;;14.93;12.05;;;19.20;99.90;;;;;;5031856;28;20094;-74
2023/08/26 02:15:50;;;;;;;14.23;12.77;;;19.20;99.90;;;;;;5031651;28;20056;-74
2023/08/26 02:18:17;;;;;;;21.02;12.98;;;19.20;99.90;;;;;;5032012;28;20049;-78
2023/08/26 02:20:43;;;;;;;15.30;13.15;;;19.10;99.90;;;;;;5030949;28;20017;-74
2023/08/26 02:23:10;;;;;;;14.00;12.40;;;19.10;99.90;;;;;;5032536;28;20040;-78
2023/08/26 02:25:36;;;;;;;14.57;11.52;;;19.10;99.90;;;;;;5031620;28;20373;-75
2023/08/26 02:28:02;;;;;;;14.73;11.80;;;19.00;99.90;;;;;;5032261;28;20028;-78
2023/08/26 02:30:29;;;;;;;14.15;11.85;;;19.00;99.90;;;;;;5031066;28;20438;-78
2023/08/26 02:32:54;;;;;;;13.82;11.85;;;18.90;99.90;;;;;;5032706;28;20109;-75
2023/08/26 02:35:20;;;;;;;16.25;11.23;;;18.90;99.90;;;;;;5032287;28;20097;-75
2023/08/26 02:37:46;;;;;;;17.02;12.52;;;18.90;99.90;;;;;;5032617;28;20037;-75
2023/08/26 02:40:11;;;;;;;19.50;12.00;;;18.90;99.90;;;;;;5030932;28;20025;-77
2023/08/26 02:42:37;;;;;;;12.73;10.82;;;18.80;99.90;;;;;;5032349;28;20475;-73
2023/08/26 02:45:04;;;;;;;13.35;11.25;;;18.80;99.90;;;;;;5031146;28;20483;-73
2023/08/26 02:47:30;;;;;;;12.70;11.38;;;18.70;99.90;;;;;;5031116;28;20071;-74
2023/08/26 02:49:56;;;;;;;11.70;10.60;;;18.70;99.90;;;;;;5032269;28;20463;-73
2023/08/26 02:52:21;;;;;;;12.63;10.93;;;18.70;99.90;;;;;;5034312;28;20498;-74
2023/08/26 02:54:47;;;;;;;14.55;11.52;;;18.60;99.90;;;;;;5031818;28;20033;-77
2023/08/26 02:57:13;;;;;;;13.73;11.52;;;18.60;99.90;;;;;;5030845;28;20120;-77
2023/08/26 02:59:39;;;;;;;15.20;11.75;;;18.60;99.90;;;;;;5031906;28;20053;-75
2023/08/26 03:02:06;;;;;;;13.10;11.70;;;18.50;99.90;;;;;;5031983;28;20034;-77
2023/08/26 03:04:32;;;;;;;14.75;10.85;;;18.50;99.90;;;;;;5031052;28;20391;-74
2023/08/26 03:06:58;;;;;;;11.38;9.48;;;18.50;99.90;;;;;;5030648;28;20021;-74
2023/08/26 03:09:24;;;;;;;11.25;9.23;;;18.40;99.90;;;;;;5032166;28;20071;-74
2023/08/26 03:11:50;;;;;;;10.88;9.38;;;18.30;99.90;;;;;;5031676;28;20026;-74
2023/08/26 03:14:15;;;;;;;12.60;9.50;;;18.40;99.90;;;;;;5032116;28;20028;-77
2023/08/26 03:16:41;;;;;;;9.63;7.97;;;18.30;99.90;;;;;;5031720;28;20476;-77
2023/08/26 03:19:06;;;;;;;8.50;7.70;;;18.20;99.90;;;;;;5031067;28;20057;-77
2023/08/26 03:21:32;;;;;;;10.85;8.82;;;18.20;99.90;;;;;;5031923;28;20042;-77
2023/08/26 03:23:58;;;;;;;10.63;9.20;;;18.20;99.90;;;;;;5031691;28;20018;-77
2023/08/26 03:26:24;;;;;;;11.10;10.00;;;18.10;99.90;;;;;;5030961;28;20036;-74
2023/08/26 03:28:49;;;;;;;11.60;9.13;;;18.10;99.90;;;;;;5024089;28;20391;-76
2023/08/26 03:31:15;;;;;;;10.90;9.77;;;18.10;99.90;;;;;;5025970;28;20017;-77
2023/08/26 03:33:41;;;;;;;13.57;10.10;;;18.10;99.90;;;;;;5035529;28;20076;-78
2023/08/26 03:36:07;;;;;;;13.70;10.10;;;18.10;99.90;;;;;;5034853;28;20029;-77
2023/08/26 03:38:35;;;;;;;11.32;9.52;;;18.10;99.90;;;;;;5025954;28;20463;-74
2023/08/26 03:41:03;;;;;;;10.27;8.88;;;18.00;99.90;;;;;;5035323;28;20025;-77
2023/08/26 03:43:29;;;;;;;10.35;8.75;;;18.00;99.90;;;;;;5027514;28;20029;-75
2023/08/26 03:45:54;;;;;;;10.40;8.95;;;18.00;99.90;;;;;;5033692;28;20034;-77
2023/08/26 03:48:20;;;;;;;10.27;7.97;;;17.90;99.90;;;;;;5035169;28;20104;-74
2023/08/26 03:50:56;;;;;;;12.98;9.05;;;17.80;99.90;;;;;;5035271;28;20029;-74
2023/08/26 03:53:22;;;;;;;9.95;8.95;;;17.80;99.90;;;;;;5023083;28;20025;-76
2023/08/26 03:55:47;;;;;;;10.20;8.05;;;17.80;99.90;;;;;;5034515;28;20028;-74
2023/08/26 03:58:14;;;;;;;11.60;8.38;;;17.80;99.90;;;;;;5035116;28;20383;-74
2023/08/26 04:00:39;;;;;;;14.23;9.05;;;17.80;99.90;;;;;;5034853;28;20025;-74
2023/08/26 04:03:06;;;;;;;10.23;8.38;;;17.80;99.90;;;;;;5034984;28;20072;-74
2023/08/26 04:05:32;;;;;;;10.15;8.05;;;17.80;99.90;;;;;;5034538;28;20022;-74
2023/08/26 04:08:01;;;;;;;11.48;9.23;;;17.80;99.90;;;;;;5033875;28;20040;-78
2023/08/26 04:10:27;;;;;;;9.52;8.52;;;17.80;99.90;;;;;;5032897;28;20025;-74
2023/08/26 04:12:52;;;;;;;10.68;8.10;;;17.80;99.90;;;;;;5034386;28;20037;-77
2023/08/26 04:15:18;;;;;;;9.25;8.07;;;17.70;99.90;;;;;;5034657;28;20032;-74
2023/08/26 04:17:44;;;;;;;10.30;9.30;;;17.80;99.90;;;;;;5034708;28;20406;-77
2023/08/26 04:20:11;;;;;;;13.05;8.45;;;17.80;99.90;;;;;;5033274;28;20113;-78
2023/08/26 04:22:37;;;;;;;13.27;9.70;;;17.90;99.90;;;;;;5033443;28;20033;-75
2023/08/26 04:25:05;;;;;;;11.10;8.77;;;17.90;99.90;;;;;;5034284;28;20467;-75
2023/08/26 04:27:33;;;;;;;10.05;8.70;;;18.00;99.90;;;;;;5034688;28;20104;-75
2023/08/26 04:29:59;;;;;;;18.63;9.93;;;18.00;99.90;;;;;;5034296;28;20490;-78
2023/08/26 04:32:26;;;;;;;9.18;8.15;;;18.00;99.90;;;;;;5034153;28;20100;-75
2023/08/26 04:34:51;;;;;;;12.85;9.18;;;18.10;99.90;;;;;;5034156;28;20105;-75
2023/08/26 04:37:20;;;;;;;12.15;9.20;;;18.20;99.90;;;;;;5034495;28;20104;-78
2023/08/26 04:39:46;;;;;;;9.77;8.70;;;18.20;99.90;;;;;;5032599;28;20021;-75
2023/08/26 04:42:12;;;;;;;9.25;7.38;;;18.10;99.90;;;;;;5034170;28;20120;-78
2023/08/26 04:44:38;;;;;;;6.47;5.95;;;18.10;99.90;;;;;;5033063;28;20141;-76
2023/08/26 04:47:04;;;;;;;7.03;6.28;;;18.20;99.90;;;;;;5033677;28;20030;-75
2023/08/26 04:49:31;;;;;;;8.55;6.38;;;18.20;99.90;;;;;;5034370;28;20056;-78
2023/08/26 04:51:56;;;;;;;5.57;5.07;;;18.20;99.90;;;;;;5032758;28;20220;-78
2023/08/26 04:54:22;;;;;;;8.57;6.15;;;18.30;99.90;;;;;;5034087;28;20021;-78
2023/08/26 04:56:48;;;;;;;6.68;5.10;;;18.30;99.90;;;;;;5033546;28;20029;-78
2023/08/26 04:59:13;;;;;;;5.07;4.57;;;18.30;99.90;;;;;;5034102;28;20057;-75
2023/08/26 05:01:39;;;;;;;5.40;4.97;;;18.40;99.90;;;;;;5033866;28;20111;-75
2023/08/26 05:04:05;;;;;;;5.53;5.03;;;18.40;99.90;;;;;;5033331;28;20087;-75
2023/08/26 05:06:30;;;;;;;5.47;4.97;;;18.50;99.90;;;;;;5033868;28;20029;-75
2023/08/26 05:08:56;;;;;;;4.75;4.35;;;18.60;99.90;;;;;;5033327;28;20064;-75
2023/08/26 05:11:22;;;;;;;6.00;4.57;;;18.70;99.90;;;;;;5033629;28;20483;-75
2023/08/26 05:13:47;;;;;;;6.35;5.10;;;18.70;99.90;;;;;;5033029;28;20025;-75
2023/08/26 05:16:13;;;;;;;8.48;5.97;;;18.80;99.90;;;;;;5033107;28;20033;-79
2023/08/26 05:18:38;;;;;;;6.20;5.45;;;18.80;99.90;;;;;;5031899;28;20084;-75
2023/08/26 05:21:04;;;;;;;6.35;5.75;;;19.00;99.90;;;;;;5027629;28;20021;-75
2023/08/26 05:23:30;;;;;;;8.40;7.15;;;19.10;99.90;;;;;;5026989;28;20105;-75
2023/08/26 05:25:56;;;;;;;21.23;6.57;;;19.30;99.90;;;;;;5031661;28;20046;-78
2023/08/26 05:28:22;;;;;;;7.57;6.30;;;19.40;99.90;;;;;;5031286;28;20055;-75
2023/08/26 05:30:47;;;;;;;12.10;6.57;;;19.60;99.90;;;;;;5026340;28;20079;-76
2023/08/26 05:33:13;;;;;;;9.90;6.22;;;19.80;99.90;;;;;;5026206;28;20022;-75
2023/08/26 05:35:38;;;;;;;12.40;7.28;;;19.90;99.90;;;;;;5033215;28;20113;-75
2023/08/26 05:38:04;;;;;;;8.50;6.97;;;20.10;99.90;;;;;;5031841;28;20542;-75
2023/08/26 05:40:30;;;;;;;6.90;6.20;;;20.20;99.90;;;;;;5029101;28;20025;-75
2023/08/26 05:42:56;;;;;;;9.02;7.28;;;20.40;99.90;;;;;;5031163;28;20776;-76
2023/08/26 05:45:23;;;;;;;7.63;6.72;;;20.60;99.90;;;;;;5026892;28;20503;-76
2023/08/26 05:47:50;;;;;;;8.50;7.18;;;20.70;99.90;;;;;;5031804;28;20036;-75
2023/08/26 05:50:15;;;;;;;8.75;7.57;;;20.90;99.90;;;;;;5025891;28;20026;-76
2023/08/26 05:52:41;;;;;;;11.73;8.70;;;21.10;99.90;;;;;;5028490;28;20036;-75
2023/08/26 05:55:08;;;;;;;11.50;9.13;;;21.30;99.90;;;;;;5030269;28;20517;-76
2023/08/26 05:57:34;;;;;;;10.25;8.38;;;21.50;99.90;;;;;;5029063;28;20096;-76
2023/08/26 05:59:59;;;;;;;12.73;9.60;;;21.70;99.90;;;;;;5029529;28;20130;-79
2023/08/26 06:02:25;;;;;;;14.32;10.18;;;21.90;99.90;;;;;;5030840;28;20095;-79
2023/08/26 06:04:51;;;;;;;14.57;9.98;;;22.10;99.90;;;;;;5031237;28;20029;-76
2023/08/26 06:07:18;;;;;;;12.68;9.27;;;22.30;99.90;;;;;;5031637;28;20025;-79
2023/08/26 06:09:43;;;;;;;12.43;9.60;;;22.40;99.90;;;;;;5031240;28;20059;-79
2023/08/26 06:12:09;;;;;;;11.82;9.98;;;22.50;99.90;;;;;;5031082;28;20022;-78
2023/08/26 06:14:35;;;;;;;12.57;9.80;;;22.70;99.90;;;;;;5026177;28;20030;-79
2023/08/26 06:17:00;;;;;;;13.88;10.40;;;22.80;99.90;;;;;;5030511;28;20044;-79
2023/08/26 06:19:26;;;;;;;15.70;10.52;;;23.00;99.90;;;;;;5031899;28;20529;-80
2023/08/26 06:21:52;;;;;;;13.32;10.15;;;23.10;99.90;;;;;;5031820;28;20081;-79
2023/08/26 06:24:17;;;;;;;12.43;11.13;;;23.20;99.90;;;;;;5028543;28;20037;-79
2023/08/26 06:26:44;;;;;;;13.25;9.90;;;23.40;99.90;;;;;;5028796;28;20029;-76
2023/08/26 06:29:12;;;;;;;13.73;10.45;;;23.40;99.90;;;;;;5028783;28;20021;-76
2023/08/26 06:31:38;;;;;;;17.90;11.38;;;23.50;99.90;;;;;;5030471;28;20014;-76
2023/08/26 06:34:04;;;;;;;13.07;8.23;;;23.70;99.90;;;;;;5026450;28;20032;-76
2023/08/26 06:36:30;;;;;;;13.25;9.93;;;23.80;99.90;;;;;;5023825;28;20076;-76
2023/08/26 06:38:55;;;;;;;11.45;9.60;;;23.80;99.90;;;;;;5030104;28;20452;-76
2023/08/26 06:41:21;;;;;;;12.38;10.18;;;24.00;99.90;;;;;;5030558;28;20056;-76
2023/08/26 06:43:47;;;;;;;13.57;10.23;;;24.00;99.90;;;;;;5029057;28;20034;-77
2023/08/26 06:46:13;;;;;;;15.48;11.07;;;24.10;99.90;;;;;;5026469;28;20482;-79
2023/08/26 06:48:39;;;;;;;16.15;10.95;;;24.10;99.90;;;;;;5030372;28;20083;-76
2023/08/26 06:51:04;;;;;;;14.10;10.80;;;24.00;99.90;;;;;;5031089;28;20511;-76
2023/08/26 06:53:30;;;;;;;13.55;10.43;;;24.00;99.90;;;;;;5030706;28;20052;-76
2023/08/26 06:55:55;;;;;;;15.63;11.32;;;24.10;99.90;;;;;;5027607;28;20063;-76
2023/08/26 06:58:23;;;;;;;15.48;10.38;;;24.30;99.90;;;;;;5023318;28;20025;-76
2023/08/26 07:00:49;;;;;;;12.70;10.10;;;24.40;99.90;;;;;;5016403;28;20014;-76
2023/08/26 07:03:15;;;;;;;13.00;9.23;;;24.50;99.90;;;;;;5029372;28;20033;-76
2023/08/26 07:05:45;;;;;;;13.05;9.05;;;24.60;99.90;;;;;;5031077;28;20591;-76
2023/08/26 07:08:13;;;;;;;12.48;8.82;;;24.60;99.90;;;;;;5031057;28;20022;-76
2023/08/26 07:10:38;;;;;;;15.48;9.93;;;24.60;99.90;;;;;;5031210;28;20188;-79
2023/08/26 07:13:04;;;;;;;16.10;10.43;;;24.70;99.90;;;;;;5031913;28;20152;-79
2023/08/26 07:15:30;;;;;;;13.68;9.48;;;25.00;99.90;;;;;;5032688;28;20018;-79
2023/08/26 07:17:56;;;;;;;17.25;9.27;;;25.20;99.90;;;;;;5032236;28;20056;-79
2023/08/26 07:20:21;;;;;;;16.33;9.65;;;25.30;99.90;;;;;;5034354;28;20423;-78
2023/08/26 07:22:48;;;;;;;15.93;9.98;;;25.10;99.90;;;;;;5034218;28;20037;-76
2023/08/26 07:25:14;;;;;;;14.60;10.27;;;25.10;99.90;;;;;;5033079;28;20048;-78
2023/08/26 07:27:40;;;;;;;18.27;9.93;;;25.10;99.90;;;;;;5034894;28;20441;-79
2023/08/26 07:30:06;;;;;;;14.45;9.93;;;25.30;99.90;;;;;;5034452;28;20521;-79
2023/08/26 07:32:32;;;;;;;15.93;10.45;;;25.60;99.90;;;;;;5035549;28;20045;-79
2023/08/26 07:34:58;;;;;;;20.90;10.82;;;25.80;99.90;;;;;;5034168;28;20030;-79
2023/08/26 07:37:23;;;;;;;19.13;12.02;;;25.80;99.90;;;;;;5034060;28;20105;-79
2023/08/26 07:39:49;;;;;;;19.13;12.13;;;25.80;99.90;;;;;;5035534;28;20538;-79
2023/08/26 07:42:15;;;;;;;22.27;11.95;;;25.80;99.90;;;;;;5033105;28;20033;-79
2023/08/26 07:44:41;;;;;;;16.33;12.38;;;25.90;99.90;;;;;;5034909;28;20026;-79
2023/08/26 07:47:07;;;;;;;16.52;11.15;;;26.00;99.90;;;;;;5034887;28;20086;-76
2023/08/26 07:49:32;;;;;;;17.35;10.75;;;26.20;99.90;;;;;;5035414;28;20475;-76
2023/08/26 07:51:58;;;;;;;19.80;11.82;;;26.50;99.90;;;;;;5032657;28;20053;-76
2023/08/26 07:54:24;;;;;;;17.55;12.10;;;26.70;99.50;;;;;;5034036;28;20363;-76
2023/08/26 07:56:50;;;;;;;21.58;11.65;;;26.90;96.70;;;;;;5032821;28;20051;-79
2023/08/26 07:59:15;;;;;;;17.70;10.15;;;26.90;93.50;;;;;;5034819;28;20010;-80
2023/08/26 08:01:41;;;;;;;16.33;11.02;;;27.20;93.70;;;;;;5032686;28;20172;-76
2023/08/26 08:04:07;;;;;;;17.13;10.48;;;27.20;94.10;;;;;;5034229;28;20025;-79
2023/08/26 08:06:32;;;;;;;15.57;10.27;;;27.30;94.10;;;;;;5034659;28;20111;-79
2023/08/26 08:08:58;;;;;;;16.65;10.02;;;27.50;92.20;;;;;;5031044;28;20030;-79
2023/08/26 08:11:23;;;;;;;14.75;9.35;;;27.50;84.30;;;;;;5022654;28;20384;-78
2023/08/26 08:13:50;;;;;;;14.57;9.77;;;27.70;84.70;;;;;;5033516;28;20042;-78
2023/08/26 08:16:16;;;;;;;16.98;9.68;;;27.80;80.60;;;;;;5032611;28;20128;-79
2023/08/26 08:18:41;;;;;;;12.82;9.10;;;27.70;81.10;;;;;;5034295;28;20539;-78
2023/08/26 08:21:08;;;;;;;15.60;9.35;;;27.50;83.60;;;;;;5034181;28;20033;-75
2023/08/26 08:23:35;;;;;;;14.60;8.70;;;27.50;80.20;;;;;;5028253;28;20104;-79
2023/08/26 08:26:00;;;;;;;13.65;8.52;;;27.50;79.80;;;;;;5032765;28;20419;-80
2023/08/26 08:28:26;;;;;;;11.85;8.68;;;27.80;81.00;;;;;;5030525;28;20056;-79
2023/08/26 08:30:51;;;;;;;15.98;8.65;;;27.80;77.20;;;;;;5035766;28;20031;-80
2023/08/26 08:33:17;;;;;;;11.75;7.68;;;27.90;75.60;;;;;;5035909;28;20029;-79
2023/08/26 08:35:42;;;;;;;14.90;7.95;;;28.00;75.20;;;;;;5029491;28;20025;-76
2023/08/26 08:38:08;;;;;;;13.10;7.15;;;28.20;75.90;;;;;;5029932;28;20021;-77
2023/08/26 08:40:34;;;;;;;7.63;6.50;;;28.20;71.90;;;;;;5024503;28;20028;-77
2023/08/26 08:43:02;;;;;;;9.32;6.20;;;28.30;69.70;;;;;;5032816;28;20513;-77
2023/08/26 08:45:28;;;;;;;8.93;6.30;;;28.30;66.90;;;;;;5032664;28;20399;-80
2023/08/26 08:47:54;;;;;;;8.02;6.00;;;28.40;67.20;;;;;;5028281;28;20036;-76
2023/08/26 08:50:21;;;;;;;11.95;6.68;;;28.50;66.90;;;;;;5034390;28;20021;-80
2023/08/26 08:52:49;;;;;;;11.05;6.35;;;28.60;66.10;;;;;;5034098;28;20025;-80
2023/08/26 08:55:15;;;;;;;10.48;6.15;;;28.80;66.60;;;;;;5032229;28;20025;-78
2023/08/26 08:57:41;;;;;;;8.35;5.75;;;28.90;63.00;;;;;;5034170;28;20140;-78
2023/08/26 09:00:08;;;;;;;6.72;5.55;;;29.00;63.50;;;;;;5030613;28;20436;-75
2023/08/26 09:02:38;;;;;;;5.68;4.82;;;29.10;60.90;;;;;;5032387;28;20033;-79
2023/08/26 09:05:04;;;;;;;7.07;5.63;;;29.20;58.80;;;;;;5034132;28;20124;-79
2023/08/26 09:07:33;;;;;;;7.22;5.35;;;29.30;60.40;;;;;;5033832;28;20447;-79
2023/08/26 09:09:59;;;;;;;7.18;4.72;;;29.40;60.20;;;;;;5032224;28;20028;-79
2023/08/26 09:12:24;;;;;;;7.10;4.82;;;29.50;57.20;;;;;;5033826;28;20026;-75
2023/08/26 09:14:51;;;;;;;9.13;5.00;;;29.60;55.90;;;;;;5033549;28;20021;-75
2023/08/26 09:17:18;;;;;;;10.75;6.22;;;29.70;55.20;;;;;;5019664;28;20049;-75
2023/08/26 09:20:00;;;;;;;11.02;6.20;;;29.70;55.00;;;;;;5024673;28;20096;-75
2023/08/26 09:22:28;;;;;;;14.30;8.90;;;29.80;55.60;;;;;;5029971;28;20483;-75
2023/08/26 09:24:58;;;;;;;12.18;7.82;;;29.80;54.90;;;;;;5023597;28;20028;-75
2023/08/26 09:27:24;;;;;;;11.43;7.60;;;29.80;54.00;;;;;;5032968;28;20084;-75
2023/08/26 09:29:51;;;;;;;12.68;7.55;;;29.80;55.10;;;;;;5032303;28;20022;-76
2023/08/26 09:32:31;;;;;;;12.50;7.13;;;29.80;55.20;;;;;;5031738;28;20079;-75
2023/08/26 09:35:09;;;;;;;11.93;7.80;;;29.80;55.60;;;;;;5033309;28;20029;-75
2023/08/26 09:37:34;;;;;;;12.65;7.00;;;29.80;55.20;;;;;;5032184;28;20029;-76
2023/08/26 09:40:00;;;;;;;9.55;6.68;;;29.80;56.00;;;;;;5047904;28;20029;-78
2023/08/26 09:42:26;;;;;;;9.68;6.50;;;30.00;56.80;;;;;;5031409;28;20108;-79
2023/08/26 09:44:55;;;;;;;9.32;6.32;;;30.00;55.90;;;;;;5033071;28;20022;-78
2023/08/26 09:47:21;;;;;;;9.65;5.40;;;29.90;55.90;;;;;;5031403;28;20132;-78
2023/08/26 09:49:50;;;;;;;7.57;5.22;;;30.00;57.00;;;;;;5032625;28;20026;-77
2023/08/26 09:52:16;;;;;;;7.97;5.68;;;30.00;53.70;;;;;;5021081;28;20565;-79
2023/08/26 09:54:44;;;;;;;5.85;4.95;;;30.20;53.10;;;;;;5032825;28;20033;-79
2023/08/26 09:57:11;;;;;;;5.07;4.53;;;30.20;54.00;;;;;;5024165;28;20064;-79
2023/08/26 09:59:37;;;;;;;5.95;4.68;;;30.50;55.30;;;;;;5032128;28;20437;-79
2023/08/26 10:02:04;;;;;;;7.03;4.93;;;30.80;53.90;;;;;;5032327;28;20417;-79
2023/08/26 10:04:36;;;;;;;9.23;5.82;;;30.80;54.20;;;;;;5030348;28;20037;-79
2023/08/26 10:07:02;;;;;;;8.90;5.68;;;31.10;55.90;;;;;;5030759;28;20108;-79
2023/08/26 10:09:31;;;;;;;6.25;5.32;;;31.20;55.20;;;;;;5028968;28;20467;-79
2023/08/26 10:12:00;;;;;;;7.55;5.15;;;31.20;54.20;;;;;;5031710;28;20091;-79
2023/08/26 10:14:28;;;;;;;10.95;5.97;;;31.30;53.70;;;;;;5023982;28;20105;-79
2023/08/26 10:16:56;;;;;;;7.25;5.32;;;31.20;52.90;;;;;;5027740;28;20045;-75
2023/08/26 10:19:23;;;;;;;9.90;5.47;;;31.20;53.60;;;;;;5028589;28;20580;-76
2023/08/26 10:21:50;;;;;;;6.55;5.13;;;30.90;52.50;;;;;;5029565;28;20041;-75
2023/08/26 10:24:17;;;;;;;7.93;5.57;;;30.80;52.80;;;;;;5032045;28;20017;-75
2023/08/26 10:26:43;;;;;;;9.68;5.25;;;30.60;52.00;;;;;;5030566;28;20028;-75
2023/08/26 10:29:10;;;;;;;7.10;6.07;;;30.60;52.50;;;;;;5029396;28;20021;-75
2023/08/26 10:31:39;;;;;;;7.85;5.88;;;30.70;52.90;;;;;;5028412;28;20017;-75
2023/08/26 10:34:07;;;;;;;6.22;4.50;;;30.70;54.40;;;;;;5029504;28;20028;-75
2023/08/26 10:36:38;;;;;;;6.68;5.47;;;30.50;53.20;;;;;;5030889;28;20017;-75
2023/08/26 10:39:10;;;;;;;8.20;6.38;;;30.50;52.70;;;;;;5034124;28;20390;-79
2023/08/26 10:41:36;;;;;;;4.97;4.50;;;30.50;52.90;;;;;;5034753;28;20088;-79
2023/08/26 10:44:03;;;;;;;8.10;5.15;;;30.50;52.20;;;;;;5034220;28;20379;-79
2023/08/26 10:46:53;;;;;;;8.65;5.40;;;30.50;52.40;;;;;;5037333;28;20061;-79
2023/08/26 10:49:22;;;;;;;8.20;4.93;;;30.30;53.80;;;;;;5032697;28;20052;-79
2023/08/26 10:51:48;;;;;;;8.23;6.10;;;29.90;54.40;;;;;;5033518;28;20040;-79
2023/08/26 10:54:13;;;;;;;9.60;5.78;;;29.80;56.10;;;;;;5037690;28;20037;-79
2023/08/26 10:56:41;;;;;;;6.63;5.53;;;29.60;57.20;;;;;;5036760;28;20022;-78
2023/08/26 10:59:07;;;;;;;9.40;5.18;;;29.40;57.00;;;;;;5039323;28;20033;-78
2023/08/26 11:01:36;;;;;;;5.63;5.05;;;29.10;57.70;;;;;;5032735;28;20030;-78
2023/08/26 11:04:05;;;;;;;6.65;4.97;;;29.00;59.20;;;;;;5035106;28;20075;-78
2023/08/26 11:06:39;;;;;;;9.40;4.95;;;28.90;59.50;;;;;;5040372;28;20030;-78
2023/08/26 11:09:05;;;;;;;9.82;5.50;;;28.80;60.00;;;;;;5036613;28;20044;-78
2023/08/26 11:11:32;;;;;;;8.85;5.35;;;28.70;60.90;;;;;;5037672;28;20104;-75
2023/08/26 11:13:58;;;;;;;7.68;5.18;;;28.80;61.40;;;;;;5033757;28;20112;-75
2023/08/26 11:16:23;;;;;;;8.45;5.65;;;28.80;60.60;;;;;;5033438;28;20499;-75
2023/08/26 11:18:53;;;;;;;8.80;5.40;;;28.90;61.10;;;;;;5033747;28;20033;-75
2023/08/26 11:21:18;;;;;;;9.00;5.70;;;28.90;60.20;;;;;;5030820;28;20554;-75
2023/08/26 11:23:47;;;;;;;9.48;5.65;;;28.90;60.70;;;;;;5031925;28;20112;-76
2023/08/26 11:26:20;;;;;;;6.53;5.18;;;29.00;61.60;;;;;;5035880;28;20029;-78
2023/08/26 11:28:48;;;;;;;6.50;4.68;;;28.90;60.50;;;;;;5026204;28;20053;-78
2023/08/26 11:31:14;;;;;;;7.47;4.75;;;29.00;61.20;;;;;;5025600;28;20025;-78
2023/08/26 11:33:40;;;;;;;6.05;4.53;;;28.90;61.20;;;;;;5035995;28;20024;-75
2023/08/26 11:36:05;;;;;;;7.72;4.47;;;28.80;60.90;;;;;;5036376;28;20100;-75
2023/08/26 11:38:35;;;;;;;6.70;4.28;;;28.80;63.10;;;;;;5037993;28;20500;-75
2023/08/26 11:41:07;;;;;;;10.60;6.88;;;28.70;62.80;;;;;;5025750;28;20092;-75
2023/08/26 11:43:34;;;;;;;9.60;5.65;;;28.60;63.40;;;;;;5033526;28;20037;-75
2023/08/26 11:46:00;;;;;;;8.45;5.80;;;28.50;64.00;;;;;;5034139;28;20026;-75
2023/08/26 11:48:27;;;;;;;7.25;5.55;;;28.50;65.50;;;;;;5032893;28;20033;-75
2023/08/26 11:51:00;;;;;;;7.43;5.40;;;28.40;66.50;;;;;;5030307;28;20052;-75
2023/08/26 11:53:26;;;;;;;7.68;5.55;;;28.30;71.40;;;;;;5030863;28;20033;-78
2023/08/26 11:55:52;;;;;;;5.25;4.68;;;28.20;75.60;;;;;;5024382;28;20030;-75
2023/08/26 11:58:18;;;;;;;7.70;5.30;;;28.00;81.70;;;;;;5033595;28;20021;-75
2023/08/26 12:00:44;;;;;;;10.90;6.57;;;27.80;80.80;;;;;;5035059;28;20036;-77
2023/08/26 12:03:10;;;;;;;8.82;6.40;;;27.50;84.30;;;;;;5034619;28;20065;-78
2023/08/26 12:05:48;;;;;;;10.80;7.10;;;27.30;91.00;;;;;;5030526;28;20433;-77
2023/08/26 12:08:19;;;;;;;7.05;6.40;;;27.00;95.50;;;;;;5031841;28;20075;-77
2023/08/26 12:10:49;;;;;;;8.50;5.90;;;26.80;99.90;;;;;;5036236;28;20083;-77
2023/08/26 12:13:15;;;;;;;6.68;5.93;;;26.60;99.90;;;;;;5034426;28;20483;-77
2023/08/26 12:15:41;;;;;;;7.70;6.13;;;26.50;99.90;;;;;;5040464;28;20017;-77
2023/08/26 12:18:09;;;;;;;9.68;6.50;;;26.40;99.90;;;;;;5035040;28;20057;-78
2023/08/26 12:20:35;;;;;;;11.43;6.72;;;26.20;99.90;;;;;;5035607;28;20607;-74
2023/08/26 12:23:03;;;;;;;9.77;6.22;;;26.10;99.90;;;;;;5041299;28;20487;-74
2023/08/26 12:25:35;;;;;;;10.77;6.22;;;26.00;99.90;;;;;;5036190;28;20041;-74
2023/08/26 12:28:11;;;;;;;10.05;5.97;;;25.90;99.90;;;;;;5043078;28;20451;-75
2023/08/26 12:30:37;;;;;;;7.32;5.50;;;25.70;99.90;;;;;;5037318;28;20550;-76
2023/08/26 12:33:06;;;;;;;9.07;5.43;;;25.50;99.90;;;;;;5034663;28;20014;-76